createdAt,value
2019-05-05T00:03:18.816Z,5.12
2019-05-05T00:08:15.205Z,5.07
2019-05-05T00:13:10.774Z,5.07
2019-05-05T00:18:05.468Z,4.99
2019-05-05T00:22:59.513Z,4.93
2019-05-05T00:27:54.586Z,4.75
2019-05-05T00:32:48.669Z,4.75
2019-05-05T00:37:42.607Z,4.86
2019-05-05T00:42:36.671Z,4.80
2019-05-05T00:47:47.861Z,4.71
2019-05-05T00:52:41.952Z,4.64
2019-05-05T00:57:36.002Z,4.61
2019-05-05T01:02:31.853Z,4.56
2019-05-05T01:07:26.015Z,4.53
2019-05-05T01:12:20.351Z,4.51
2019-05-05T01:17:14.818Z,4.35
2019-05-05T01:22:08.952Z,4.31
2019-05-05T01:27:04.256Z,4.29
2019-05-05T01:32:00.422Z,4.12
2019-05-05T01:36:56.308Z,4.14
2019-05-05T01:41:54.191Z,4.12
2019-05-05T01:46:48.053Z,4.09
2019-05-05T01:51:42.018Z,3.94
2019-05-05T01:56:36.066Z,3.91
2019-05-05T02:01:30.013Z,3.86
2019-05-05T02:06:24.846Z,3.71
2019-05-05T02:11:19.049Z,3.71
2019-05-05T02:16:14.931Z,3.66
2019-05-05T02:21:09.165Z,3.66
2019-05-05T02:26:04.828Z,3.65
2019-05-05T02:31:18.803Z,3.63
2019-05-05T02:36:15.729Z,3.67
2019-05-05T02:41:09.136Z,3.59
2019-05-05T02:46:17.542Z,3.59
2019-05-05T02:51:14.800Z,3.60
2019-05-05T02:56:10.262Z,3.51
2019-05-05T03:01:14.003Z,3.41
2019-05-05T03:06:08.094Z,3.35
2019-05-05T03:11:03.909Z,3.34
2019-05-05T03:16:19.984Z,3.43
2019-05-05T03:21:14.335Z,3.43
2019-05-05T03:26:08.374Z,3.33
2019-05-05T03:31:05.050Z,3.37
2019-05-05T03:35:58.437Z,3.45
2019-05-05T03:40:54.388Z,3.55
2019-05-05T03:45:56.288Z,3.64
2019-05-05T03:50:50.359Z,3.76
2019-05-05T03:55:44.400Z,3.80
2019-05-05T04:00:54.942Z,3.73
2019-05-05T04:05:53.872Z,3.80
2019-05-05T04:10:48.244Z,3.97
2019-05-05T04:15:44.257Z,4.08
2019-05-05T04:20:38.313Z,4.18
2019-05-05T04:25:32.274Z,4.34
2019-05-05T04:30:26.235Z,4.55
2019-05-05T04:35:20.266Z,4.68
2019-05-05T04:40:14.962Z,4.70
2019-05-05T04:45:09.277Z,4.93
2019-05-05T04:50:06.741Z,5.00
2019-05-05T04:55:00.722Z,5.26
2019-05-05T04:59:54.703Z,5.53
2019-05-05T05:05:04.015Z,5.66
2019-05-05T05:09:58.093Z,5.82
2019-05-05T05:14:54.490Z,6.04
2019-05-05T05:19:48.096Z,6.15
2019-05-05T05:24:42.076Z,6.27
2019-05-05T05:29:36.229Z,6.42
2019-05-05T05:34:30.205Z,6.47
2019-05-05T05:39:26.083Z,6.72
2019-05-05T05:44:38.584Z,6.93
2019-05-05T05:49:37.272Z,6.88
2019-05-05T05:54:31.262Z,7.28
2019-05-05T05:59:25.228Z,7.49
2019-05-05T06:04:19.189Z,7.60
2019-05-05T06:09:14.822Z,7.20
2019-05-05T06:14:08.839Z,7.87
2019-05-05T06:19:03.637Z,8.54
2019-05-05T06:23:57.912Z,8.23
2019-05-05T06:28:53.957Z,8.60
2019-05-05T06:33:47.748Z,8.75
2019-05-05T06:38:43.648Z,8.82
2019-05-05T06:43:56.127Z,8.82
2019-05-05T06:48:53.853Z,8.81
2019-05-05T06:53:47.944Z,8.47
2019-05-05T06:58:41.985Z,8.46
2019-05-05T07:03:35.952Z,8.87
2019-05-05T07:08:29.909Z,9.28
2019-05-05T07:13:24.477Z,9.59
2019-05-05T07:18:18.745Z,9.76
2019-05-05T07:23:14.480Z,9.72
2019-05-05T07:28:08.696Z,10.13
2019-05-05T07:33:04.580Z,9.59
2019-05-05T07:37:58.688Z,10.55
2019-05-05T07:42:54.017Z,10.40
2019-05-05T07:47:48.220Z,9.93
2019-05-05T07:52:43.896Z,10.04
2019-05-05T07:57:37.891Z,10.23
2019-05-05T08:02:33.738Z,11.20
2019-05-05T08:07:27.848Z,12.00
2019-05-05T08:12:21.981Z,12.20
2019-05-05T08:17:34.653Z,11.66
2019-05-05T08:22:28.812Z,11.40
2019-05-05T08:27:25.039Z,11.19
2019-05-05T08:32:24.003Z,11.35
2019-05-05T08:37:18.377Z,12.39
2019-05-05T08:42:14.368Z,13.09
2019-05-05T08:47:08.342Z,12.90
2019-05-05T08:52:04.032Z,12.84
2019-05-05T08:56:58.400Z,12.64
2019-05-05T09:01:54.118Z,13.30
2019-05-05T09:06:48.486Z,13.66
2019-05-05T09:11:43.785Z,12.90
2019-05-05T09:16:37.963Z,12.63
2019-05-05T09:21:31.945Z,12.70
2019-05-05T09:26:37.438Z,12.99
2019-05-05T09:31:31.423Z,13.21
2019-05-05T09:36:25.505Z,13.20
2019-05-05T09:41:19.538Z,13.01
2019-05-05T09:46:14.403Z,13.47
2019-05-05T09:51:08.614Z,14.50
2019-05-05T09:56:04.053Z,16.74
2019-05-05T10:00:58.338Z,17.11
2019-05-05T10:05:54.085Z,16.10
2019-05-05T10:10:48.242Z,12.94
2019-05-05T10:15:44.298Z,11.24
2019-05-05T10:20:38.144Z,11.12
2019-05-05T10:25:48.945Z,11.51
2019-05-05T10:30:43.032Z,12.61
2019-05-05T10:35:37.026Z,13.32
2019-05-05T10:40:33.865Z,14.17
2019-05-05T10:45:28.258Z,14.92
2019-05-05T10:50:24.462Z,16.63
2019-05-05T10:55:18.572Z,17.64
2019-05-05T11:00:15.680Z,18.86
2019-05-05T11:05:10.491Z,19.12
2019-05-05T11:10:04.987Z,19.52
2019-05-05T11:14:58.967Z,19.95
2019-05-05T11:19:53.202Z,19.94
2019-05-05T11:24:57.118Z,19.81
2019-05-05T11:30:04.031Z,18.46
2019-05-05T11:34:57.846Z,16.57
2019-05-05T11:39:53.659Z,15.87
2019-05-05T11:44:47.788Z,15.28
2019-05-05T11:49:41.758Z,15.08
2019-05-05T11:54:35.779Z,14.09
2019-05-05T11:59:29.981Z,13.50
2019-05-05T12:04:24.189Z,14.37
2019-05-05T12:09:20.192Z,18.13
2019-05-05T12:14:16.126Z,22.72
2019-05-05T12:19:13.563Z,29.78
2019-05-05T12:24:09.603Z,34.70
2019-05-05T12:29:05.598Z,40.59
2019-05-05T12:33:59.772Z,43.84
2019-05-05T12:38:54.641Z,35.03
2019-05-05T12:43:49.021Z,24.37
2019-05-05T12:48:51.149Z,16.91
2019-05-05T12:53:45.126Z,13.40
2019-05-05T12:58:39.179Z,12.56
2019-05-05T13:03:34.621Z,12.95
2019-05-05T13:08:28.772Z,13.38
2019-05-05T13:13:22.860Z,14.18
2019-05-05T13:18:16.905Z,15.73
2019-05-05T13:23:23.528Z,17.54
2019-05-05T13:28:17.728Z,19.28
2019-05-05T13:33:11.733Z,20.10
2019-05-05T13:38:05.726Z,29.97
2019-05-05T13:42:59.738Z,40.61
2019-05-05T13:47:54.159Z,39.40
2019-05-05T13:52:48.220Z,36.87
2019-05-05T13:57:44.332Z,27.25
2019-05-05T14:02:38.270Z,35.89
2019-05-05T14:07:34.185Z,32.72
2019-05-05T14:12:28.257Z,31.58
2019-05-05T14:17:22.342Z,34.22
2019-05-05T14:22:16.379Z,28.51
2019-05-05T14:27:10.369Z,34.38
2019-05-05T14:32:05.010Z,34.92
2019-05-05T14:37:17.781Z,31.97
2019-05-05T14:42:11.870Z,34.01
2019-05-05T14:47:06.077Z,23.43
2019-05-05T14:52:00.066Z,25.30
2019-05-05T14:56:54.489Z,23.62
2019-05-05T15:01:48.448Z,25.62
2019-05-05T15:06:44.415Z,27.01
2019-05-05T15:11:58.468Z,27.28
2019-05-05T15:16:54.235Z,28.35
2019-05-05T15:21:48.921Z,23.05
2019-05-05T15:26:51.879Z,25.82
2019-05-05T15:31:39.124Z,26.12
2019-05-05T15:36:33.547Z,24.86
2019-05-05T15:41:27.859Z,20.93
2019-05-05T15:46:21.977Z,20.51
2019-05-05T15:51:15.968Z,19.08
2019-05-05T15:56:10.108Z,19.89
2019-05-05T16:01:04.195Z,20.70
2019-05-05T16:05:58.412Z,21.57
2019-05-05T16:10:54.424Z,21.39
2019-05-05T16:15:50.386Z,20.90
2019-05-05T16:21:03.490Z,21.03
2019-05-05T16:25:57.621Z,20.51
2019-05-05T16:30:53.371Z,20.09
2019-05-05T16:35:47.615Z,20.42
2019-05-05T16:40:44.308Z,19.58
2019-05-05T16:45:38.521Z,18.41
2019-05-05T16:50:34.075Z,17.37
2019-05-05T16:55:34.485Z,16.84
2019-05-05T17:00:28.990Z,16.00
2019-05-05T17:05:24.105Z,15.21
2019-05-05T17:10:18.514Z,14.97
2019-05-05T17:15:14.714Z,14.34
2019-05-05T17:20:17.017Z,14.40
2019-05-05T17:25:13.854Z,14.06
2019-05-05T17:30:08.545Z,13.93
2019-05-05T17:35:03.911Z,14.30
2019-05-05T17:39:59.958Z,13.86
2019-05-05T17:44:55.853Z,13.69
2019-05-05T17:49:57.701Z,13.66
2019-05-05T17:54:53.934Z,13.56
2019-05-05T17:59:48.174Z,13.32
2019-05-05T18:04:44.383Z,13.04
2019-05-05T18:09:55.885Z,12.90
2019-05-05T18:14:53.667Z,12.91
2019-05-05T18:19:47.723Z,13.01
2019-05-05T18:24:41.770Z,12.48
2019-05-05T18:29:35.862Z,12.10
2019-05-05T18:34:30.272Z,12.29
2019-05-05T18:39:24.860Z,11.72
2019-05-05T18:44:24.171Z,11.14
2019-05-05T18:49:18.359Z,11.02
2019-05-05T18:54:12.467Z,10.90
2019-05-05T18:59:06.868Z,10.82
2019-05-05T19:04:04.189Z,10.76
2019-05-05T19:09:02.535Z,10.53
2019-05-05T19:13:56.526Z,10.42
2019-05-05T19:18:50.712Z,10.27
2019-05-05T19:23:44.875Z,10.12
2019-05-05T19:28:44.426Z,9.99
2019-05-05T19:33:35.278Z,9.86
2019-05-05T19:38:29.371Z,9.82
2019-05-05T19:43:24.539Z,9.69
2019-05-05T19:48:18.638Z,9.60
2019-05-05T19:53:24.637Z,9.55
2019-05-05T19:58:18.914Z,9.55
2019-05-05T20:03:14.345Z,9.42
2019-05-05T20:08:08.543Z,9.40
2019-05-05T20:13:04.844Z,9.43
2019-05-05T20:17:58.507Z,9.37
2019-05-05T20:22:54.672Z,9.31
2019-05-05T20:27:48.396Z,9.15
2019-05-05T20:32:56.637Z,8.95
2019-05-05T20:37:54.138Z,8.74
2019-05-05T20:42:48.224Z,8.54
2019-05-05T20:47:43.973Z,8.45
2019-05-05T20:52:37.994Z,8.35
2019-05-05T20:57:31.985Z,8.23
2019-05-05T21:02:26.084Z,8.10
2019-05-05T21:07:23.371Z,8.41
2019-05-05T21:12:16.026Z,8.70
2019-05-05T21:17:10.269Z,8.90
2019-05-05T21:22:23.218Z,9.04
2019-05-05T21:27:17.191Z,9.09
2019-05-05T21:32:11.190Z,8.88
2019-05-05T21:37:05.300Z,8.83
2019-05-05T21:41:59.369Z,8.85
2019-05-05T21:46:53.787Z,8.91
2019-05-05T21:51:55.803Z,9.00
2019-05-05T21:56:54.730Z,8.81
2019-05-05T22:01:50.034Z,8.48
2019-05-05T22:06:44.124Z,8.20
2019-05-05T22:11:38.183Z,8.19
2019-05-05T22:16:35.287Z,8.26
2019-05-05T22:21:29.921Z,8.14
2019-05-05T22:26:24.073Z,7.96
2019-05-05T22:31:18.089Z,7.77
2019-05-05T22:36:14.075Z,7.69
2019-05-05T22:41:07.928Z,7.52
2019-05-05T22:46:03.567Z,7.34
2019-05-05T22:50:57.707Z,7.30
2019-05-05T22:55:51.720Z,7.09
2019-05-05T23:00:45.790Z,6.90
2019-05-05T23:05:56.497Z,6.77
2019-05-05T23:10:50.447Z,6.67
2019-05-05T23:15:46.316Z,6.63
2019-05-05T23:21:04.636Z,6.60
2019-05-05T23:26:00.627Z,6.62
2019-05-05T23:30:54.818Z,6.46
2019-05-05T23:35:48.858Z,6.41
2019-05-05T23:40:42.812Z,6.20
2019-05-05T23:45:36.795Z,6.23
2019-05-05T23:50:30.782Z,6.23
2019-05-05T23:55:24.786Z,6.34
